createdAt,value
2023-04-21T00:01:56.453Z,87.32
2023-04-21T00:04:24.125Z,90.75
2023-04-21T00:06:53.308Z,92.65
2023-04-21T00:09:20.618Z,95.32
2023-04-21T00:11:48.004Z,96.97
2023-04-21T00:14:14.745Z,99.88
2023-04-21T00:16:42.069Z,101.07
2023-04-21T00:19:08.824Z,103.97
2023-04-21T00:21:36.614Z,108.30
2023-04-21T00:24:03.811Z,98.90
2023-04-21T00:26:31.211Z,107.50
2023-04-21T00:28:58.780Z,102.50
2023-04-21T00:31:26.306Z,107.88
2023-04-21T00:33:53.803Z,101.68
2023-04-21T00:36:24.977Z,102.78
2023-04-21T00:38:52.731Z,103.80
2023-04-21T00:41:20.016Z,108.63
2023-04-21T00:44:07.079Z,105.95
2023-04-21T00:46:35.445Z,100.38
2023-04-21T00:49:04.946Z,96.18
2023-04-21T00:51:34.813Z,95.75
2023-04-21T00:54:04.719Z,101.30
2023-04-21T00:56:33.834Z,100.93
2023-04-21T00:59:04.505Z,109.25
2023-04-21T01:01:34.525Z,110.10
2023-04-21T01:04:02.423Z,104.60
2023-04-21T01:06:36.777Z,107.00
2023-04-21T01:09:06.964Z,108.00
2023-04-21T01:11:36.813Z,102.05
2023-04-21T01:14:03.497Z,97.55
2023-04-21T01:16:32.644Z,109.32
2023-04-21T01:19:01.016Z,107.43
2023-04-21T01:21:29.272Z,108.18
2023-04-21T01:23:55.982Z,105.82
2023-04-21T01:26:23.800Z,108.60
2023-04-21T01:28:50.542Z,103.78
2023-04-21T01:31:18.599Z,107.57
2023-04-21T01:33:45.574Z,103.03
2023-04-21T01:36:13.024Z,106.35
2023-04-21T01:38:40.982Z,110.60
2023-04-21T01:41:09.009Z,103.93
2023-04-21T01:43:37.034Z,100.53
2023-04-21T01:46:05.816Z,104.60
2023-04-21T01:48:32.490Z,110.03
2023-04-21T01:50:59.419Z,110.38
2023-04-21T01:53:27.191Z,104.13
2023-04-21T01:55:53.843Z,112.00
2023-04-21T01:58:21.851Z,109.95
2023-04-21T02:00:48.544Z,117.07
2023-04-21T02:03:16.155Z,109.30
2023-04-21T02:05:46.062Z,109.95
2023-04-21T02:08:13.161Z,112.68
2023-04-21T02:10:41.124Z,115.28
2023-04-21T02:13:11.938Z,111.18
2023-04-21T02:15:38.679Z,113.75
2023-04-21T02:18:08.493Z,113.05
2023-04-21T02:20:35.420Z,115.88
2023-04-21T02:23:02.758Z,115.32
2023-04-21T02:25:29.920Z,114.22
2023-04-21T02:27:57.142Z,113.78
2023-04-21T02:30:26.925Z,109.93
2023-04-21T02:32:54.121Z,118.30
2023-04-21T02:35:20.993Z,121.82
2023-04-21T02:37:47.903Z,114.65
2023-04-21T02:40:15.688Z,114.53
2023-04-21T02:42:43.022Z,120.50
2023-04-21T02:45:10.561Z,122.47
2023-04-21T02:47:37.805Z,116.07
2023-04-21T02:50:04.785Z,120.85
2023-04-21T02:52:37.342Z,116.05
2023-04-21T02:55:04.346Z,119.10
2023-04-21T02:57:31.574Z,112.78
2023-04-21T02:59:59.930Z,118.97
2023-04-21T03:02:27.447Z,119.95
2023-04-21T03:04:54.088Z,116.25
2023-04-21T03:07:21.436Z,112.35
2023-04-21T03:09:48.102Z,112.10
2023-04-21T03:12:15.378Z,105.72
2023-04-21T03:14:42.226Z,97.88
2023-04-21T03:17:09.562Z,98.97
2023-04-21T03:19:36.277Z,105.85
2023-04-21T03:22:04.292Z,96.13
2023-04-21T03:24:31.348Z,95.88
2023-04-21T03:26:58.774Z,99.70
2023-04-21T03:29:25.464Z,96.90
2023-04-21T03:31:52.728Z,96.07
2023-04-21T03:34:20.282Z,97.93
2023-04-21T03:36:47.783Z,102.93
2023-04-21T03:41:46.401Z,93.20
2023-04-21T03:44:13.000Z,102.20
2023-04-21T03:46:40.384Z,111.57
2023-04-21T03:49:07.021Z,104.20
2023-04-21T03:51:34.294Z,102.78
2023-04-21T03:54:00.906Z,109.68
2023-04-21T03:56:27.827Z,108.28
2023-04-21T03:58:55.114Z,110.25
2023-04-21T04:01:21.876Z,114.00
2023-04-21T04:03:49.434Z,108.20
2023-04-21T04:06:16.388Z,105.22
2023-04-21T04:08:43.627Z,114.50
2023-04-21T04:11:10.360Z,109.95
2023-04-21T04:13:37.599Z,111.15
2023-04-21T04:16:04.442Z,112.40
2023-04-21T04:18:31.733Z,116.38
2023-04-21T04:20:58.398Z,115.15
2023-04-21T04:23:26.316Z,107.68
2023-04-21T04:25:52.928Z,115.80
2023-04-21T04:28:20.152Z,108.00
2023-04-21T04:30:46.752Z,107.45
2023-04-21T04:33:14.026Z,108.85
2023-04-21T04:35:40.917Z,105.95
2023-04-21T04:38:08.147Z,116.90
2023-04-21T04:40:34.800Z,114.22
2023-04-21T04:43:02.858Z,115.35
2023-04-21T04:45:32.824Z,112.40
2023-04-21T04:48:00.472Z,129.02
2023-04-21T04:50:27.262Z,127.18
2023-04-21T04:52:54.549Z,134.40
2023-04-21T04:55:22.007Z,130.88
2023-04-21T04:57:49.834Z,130.90
2023-04-21T05:00:17.111Z,121.55
2023-04-21T05:02:44.546Z,132.80
2023-04-21T05:05:11.664Z,134.95
2023-04-21T05:07:39.111Z,127.75
2023-04-21T05:10:06.128Z,136.02
2023-04-21T05:12:33.204Z,122.05
2023-04-21T05:14:59.809Z,121.82
2023-04-21T05:17:27.479Z,120.30
2023-04-21T05:19:54.114Z,120.13
2023-04-21T05:22:21.006Z,116.95
2023-04-21T05:24:48.156Z,117.47
2023-04-21T05:27:15.236Z,107.25
2023-04-21T05:29:41.887Z,103.32
2023-04-21T05:32:09.127Z,95.15
2023-04-21T05:34:36.531Z,84.72
2023-04-21T05:37:03.219Z,81.07
2023-04-21T05:39:30.850Z,73.20
2023-04-21T05:41:58.215Z,70.05
2023-04-21T05:44:25.824Z,79.65
2023-04-21T05:46:52.495Z,81.95
2023-04-21T05:49:19.767Z,76.72
2023-04-21T05:51:46.637Z,78.55
2023-04-21T05:54:13.908Z,80.50
2023-04-21T05:56:40.491Z,79.18
2023-04-21T05:59:07.742Z,83.40
2023-04-21T06:01:34.426Z,85.45
2023-04-21T06:04:02.138Z,72.65
2023-04-21T06:06:29.013Z,63.85
2023-04-21T06:08:56.367Z,52.65
2023-04-21T06:11:23.767Z,51.78
2023-04-21T06:13:53.808Z,52.47
2023-04-21T06:16:20.748Z,50.35
2023-04-21T06:18:47.810Z,49.75
2023-04-21T06:21:15.107Z,45.28
2023-04-21T06:23:42.229Z,49.22
2023-04-21T06:26:09.667Z,45.85
2023-04-21T06:28:36.947Z,46.15
2023-04-21T06:31:07.833Z,47.22
2023-04-21T06:33:35.682Z,49.20
2023-04-21T06:36:03.025Z,48.00
2023-04-21T06:38:29.700Z,43.28
2023-04-21T06:40:57.077Z,49.15
2023-04-21T06:43:23.747Z,45.65
2023-04-21T06:45:50.895Z,50.92
2023-04-21T06:48:17.548Z,47.45
2023-04-21T06:50:46.549Z,48.08
2023-04-21T06:53:13.256Z,46.60
2023-04-21T06:55:40.684Z,51.78
2023-04-21T06:58:07.328Z,49.90
2023-04-21T07:00:34.666Z,51.38
2023-04-21T07:03:01.481Z,49.45
2023-04-21T07:05:29.297Z,46.00
2023-04-21T07:07:59.610Z,52.28
2023-04-21T07:10:27.623Z,49.63
2023-04-21T07:12:55.269Z,49.92
2023-04-21T07:15:22.777Z,44.70
2023-04-21T07:17:49.465Z,44.90
2023-04-21T07:20:18.881Z,46.30
2023-04-21T07:22:45.599Z,44.25
2023-04-21T07:25:13.204Z,46.60
2023-04-21T07:27:40.141Z,47.38
2023-04-21T07:30:08.159Z,45.58
2023-04-21T07:32:37.454Z,46.80
2023-04-21T07:35:06.573Z,47.10
2023-04-21T07:37:33.246Z,44.10
2023-04-21T07:40:00.630Z,44.72
2023-04-21T07:42:27.406Z,42.10
2023-04-21T07:44:56.244Z,44.30
2023-04-21T07:47:22.949Z,45.40
2023-04-21T07:49:50.318Z,41.85
2023-04-21T07:52:17.030Z,41.55
2023-04-21T07:54:44.286Z,42.70
2023-04-21T07:57:11.004Z,40.75
2023-04-21T07:59:38.081Z,38.42
2023-04-21T08:02:05.690Z,41.20
2023-04-21T08:04:32.571Z,42.80
2023-04-21T08:06:59.546Z,39.00
2023-04-21T08:09:27.381Z,41.60
2023-04-21T08:11:55.269Z,41.35
2023-04-21T08:14:22.681Z,40.28
2023-04-21T08:16:49.756Z,42.17
2023-04-21T08:19:16.921Z,43.70
2023-04-21T08:21:43.672Z,44.17
2023-04-21T08:24:11.105Z,43.17
2023-04-21T08:26:37.865Z,44.90
2023-04-21T08:29:07.585Z,43.88
2023-04-21T08:31:34.432Z,48.63
2023-04-21T08:34:03.042Z,46.13
2023-04-21T08:36:31.577Z,46.10
2023-04-21T08:38:58.744Z,45.72
2023-04-21T08:44:20.848Z,55.83
2023-04-21T08:46:53.882Z,54.22
2023-04-21T08:49:23.273Z,54.60
2023-04-21T08:51:50.179Z,58.35
2023-04-21T08:54:21.818Z,60.13
2023-04-21T08:56:49.741Z,61.78
2023-04-21T08:59:16.424Z,54.28
2023-04-21T09:02:21.031Z,55.65
2023-04-21T09:04:54.936Z,53.95
2023-04-21T09:07:41.343Z,49.75
2023-04-21T09:10:09.078Z,47.85
2023-04-21T09:12:38.525Z,54.63
2023-04-21T09:15:06.743Z,49.22
2023-04-21T09:17:33.656Z,48.75
2023-04-21T09:20:19.167Z,46.08
2023-04-21T09:22:47.849Z,46.25
2023-04-21T09:25:19.976Z,45.33
2023-04-21T09:27:47.986Z,38.13
2023-04-21T09:30:20.004Z,45.40
2023-04-21T09:32:46.944Z,43.42
2023-04-21T09:35:13.683Z,42.90
2023-04-21T09:37:43.750Z,47.60
2023-04-21T09:40:13.815Z,42.45
2023-04-21T09:42:43.939Z,43.13
2023-04-21T09:47:43.551Z,40.13
2023-04-21T09:50:13.432Z,39.75
2023-04-21T09:52:43.654Z,36.63
2023-04-21T09:55:13.794Z,38.58
2023-04-21T09:57:44.096Z,37.90
2023-04-21T10:00:13.382Z,36.75
2023-04-21T10:02:47.514Z,38.33
2023-04-21T10:05:14.634Z,36.50
2023-04-21T10:07:41.340Z,43.63
2023-04-21T10:10:14.188Z,41.22
2023-04-21T10:12:41.607Z,41.28
2023-04-21T10:15:41.438Z,48.00
2023-04-21T10:18:25.422Z,44.13
2023-04-21T10:20:56.511Z,42.15
2023-04-21T10:23:30.932Z,46.75
2023-04-21T10:26:23.481Z,47.10
2023-04-21T10:29:01.594Z,49.55
2023-04-21T10:31:43.982Z,45.55
2023-04-21T10:34:14.159Z,48.42
2023-04-21T10:37:07.206Z,37.17
2023-04-21T10:42:17.008Z,44.42
2023-04-21T10:44:53.622Z,46.90
2023-04-21T10:47:46.450Z,41.88
2023-04-21T10:50:22.525Z,39.42
2023-04-21T10:53:11.809Z,40.75
2023-04-21T10:55:39.268Z,41.88
2023-04-21T10:58:11.990Z,39.03
2023-04-21T11:00:39.558Z,45.80
2023-04-21T11:03:08.160Z,40.85
2023-04-21T11:05:40.725Z,38.42
2023-04-21T11:08:13.260Z,37.38
2023-04-21T11:10:48.923Z,37.85
2023-04-21T11:13:16.264Z,35.58
2023-04-21T11:15:56.986Z,37.15
2023-04-21T11:18:44.684Z,35.03
2023-04-21T11:21:18.400Z,38.25
2023-04-21T11:23:49.904Z,33.85
2023-04-21T11:26:17.209Z,36.03
2023-04-21T11:28:47.389Z,30.30
2023-04-21T11:31:14.108Z,31.70
2023-04-21T11:33:41.714Z,29.15
2023-04-21T11:36:08.661Z,31.38
2023-04-21T11:38:43.086Z,32.03
2023-04-21T11:41:11.240Z,33.00
2023-04-21T11:43:39.531Z,29.35
2023-04-21T11:46:33.404Z,29.85
2023-04-21T11:49:01.899Z,29.77
2023-04-21T11:51:39.246Z,33.97
2023-04-21T11:54:08.434Z,32.28
2023-04-21T11:56:40.708Z,36.28
2023-04-21T11:59:11.815Z,37.38
2023-04-21T12:01:53.316Z,39.17
2023-04-21T12:04:22.727Z,29.45
2023-04-21T12:07:01.746Z,38.70
2023-04-21T12:09:29.872Z,33.35
2023-04-21T12:11:59.158Z,33.25
2023-04-21T12:14:29.128Z,32.75
2023-04-21T12:16:57.725Z,34.25
2023-04-21T12:19:43.590Z,35.03
2023-04-21T12:22:12.886Z,37.35
2023-04-21T12:24:40.461Z,35.55
2023-04-21T12:27:08.136Z,36.42
2023-04-21T12:29:35.653Z,37.08
2023-04-21T12:32:03.288Z,35.17
2023-04-21T12:34:30.293Z,35.20
2023-04-21T12:36:58.048Z,32.95
2023-04-21T12:39:24.904Z,38.40
2023-04-21T12:41:52.233Z,33.80
2023-04-21T12:44:19.229Z,40.75
2023-04-21T12:46:46.608Z,34.63
2023-04-21T12:49:14.445Z,39.88
2023-04-21T12:51:41.783Z,35.13
2023-04-21T12:54:08.653Z,33.58
2023-04-21T12:56:36.486Z,37.35
2023-04-21T12:59:03.242Z,37.13
2023-04-21T13:01:30.349Z,35.22
2023-04-21T13:03:57.957Z,35.28
2023-04-21T13:06:24.907Z,32.40
2023-04-21T13:08:51.837Z,26.15
2023-04-21T13:11:18.720Z,31.10
2023-04-21T13:13:46.134Z,28.27
2023-04-21T13:16:12.927Z,29.50
2023-04-21T13:18:39.817Z,29.70
2023-04-21T13:21:06.516Z,35.88
2023-04-21T13:23:34.861Z,34.35
2023-04-21T13:26:01.937Z,34.03
2023-04-21T13:28:29.192Z,30.92
2023-04-21T13:30:55.929Z,27.73
2023-04-21T13:33:23.419Z,27.38
2023-04-21T13:35:50.620Z,25.58
2023-04-21T13:38:17.341Z,32.03
2023-04-21T13:40:45.578Z,27.52
2023-04-21T13:43:12.832Z,25.38
2023-04-21T13:45:39.529Z,24.23
2023-04-21T13:48:06.756Z,22.00
2023-04-21T13:50:33.876Z,26.42
2023-04-21T13:53:00.479Z,23.85
2023-04-21T13:55:27.426Z,20.40
2023-04-21T13:57:54.963Z,18.70
2023-04-21T14:00:21.943Z,15.27
2023-04-21T14:02:49.496Z,14.27
2023-04-21T14:05:16.672Z,17.17
2023-04-21T14:07:44.557Z,14.38
2023-04-21T14:10:12.314Z,17.95
2023-04-21T14:12:39.701Z,19.35
2023-04-21T14:15:07.159Z,17.25
2023-04-21T14:17:34.583Z,19.45
2023-04-21T14:20:01.567Z,20.38
2023-04-21T14:22:28.932Z,22.98
2023-04-21T14:24:55.570Z,19.20
2023-04-21T14:27:22.934Z,22.52
2023-04-21T14:29:49.606Z,18.92
2023-04-21T14:32:17.118Z,19.05
2023-04-21T14:34:43.858Z,19.65
2023-04-21T14:37:11.168Z,18.05
2023-04-21T14:39:37.793Z,16.75
2023-04-21T14:42:05.135Z,15.95
2023-04-21T14:44:31.832Z,19.05
2023-04-21T14:47:08.940Z,18.92
2023-04-21T14:49:38.144Z,17.05
2023-04-21T14:52:05.583Z,14.70
2023-04-21T14:54:32.388Z,20.13
2023-04-21T14:57:17.670Z,20.73
2023-04-21T14:59:46.596Z,13.88
2023-04-21T15:02:14.539Z,16.25
2023-04-21T15:04:41.527Z,13.00
2023-04-21T15:07:08.914Z,10.95
2023-04-21T15:09:36.516Z,13.88
2023-04-21T15:12:04.324Z,15.43
2023-04-21T15:14:31.208Z,11.60
2023-04-21T15:16:58.551Z,14.65
2023-04-21T15:19:25.811Z,11.32
2023-04-21T15:21:53.347Z,10.38
2023-04-21T15:24:20.120Z,12.55
2023-04-21T15:26:47.372Z,10.95
2023-04-21T15:29:14.036Z,16.65
2023-04-21T15:31:41.549Z,12.23
2023-04-21T15:34:08.254Z,13.90
2023-04-21T15:36:35.887Z,9.82
2023-04-21T15:39:02.649Z,9.73
2023-04-21T15:41:31.744Z,9.93
2023-04-21T15:43:59.712Z,9.73
2023-04-21T15:46:27.353Z,11.85
2023-04-21T15:48:54.109Z,10.80
2023-04-21T15:51:21.344Z,11.50
2023-04-21T15:53:48.893Z,7.35
2023-04-21T15:56:16.908Z,13.00
2023-04-21T15:58:43.929Z,7.95
2023-04-21T16:01:11.572Z,8.57
2023-04-21T16:03:40.095Z,9.30
2023-04-21T16:06:08.048Z,8.73
2023-04-21T16:08:34.848Z,9.38
2023-04-21T16:11:02.244Z,10.13
2023-04-21T16:13:29.506Z,10.27
2023-04-21T16:15:56.868Z,12.00
2023-04-21T16:18:23.746Z,7.60
2023-04-21T16:20:51.341Z,8.57
2023-04-21T16:23:18.116Z,8.75
2023-04-21T16:25:45.563Z,7.75
2023-04-21T16:28:12.518Z,9.18
2023-04-21T16:30:43.813Z,9.13
2023-04-21T16:33:11.112Z,5.50
2023-04-21T16:35:39.348Z,5.75
2023-04-21T16:38:06.479Z,3.42
2023-04-21T16:40:33.887Z,4.40
2023-04-21T16:43:00.723Z,2.05
2023-04-21T16:45:29.788Z,5.85
2023-04-21T16:47:57.223Z,8.38
2023-04-21T16:50:24.399Z,4.35
2023-04-21T16:52:51.361Z,3.95
2023-04-21T16:55:19.135Z,6.28
2023-04-21T16:57:46.142Z,3.50
2023-04-21T17:00:14.084Z,7.05
2023-04-21T17:02:40.901Z,7.85
2023-04-21T17:05:08.766Z,7.47
2023-04-21T17:07:35.453Z,8.98
2023-04-21T17:10:02.797Z,4.65
2023-04-21T17:12:29.561Z,8.27
2023-04-21T17:14:56.492Z,8.05
2023-04-21T17:17:23.721Z,6.82
2023-04-21T17:19:52.864Z,6.40
2023-04-21T17:22:19.490Z,5.07
2023-04-21T17:24:53.269Z,3.85
2023-04-21T17:27:21.554Z,5.57
2023-04-21T17:29:48.674Z,4.93
2023-04-21T17:32:15.773Z,8.07
2023-04-21T17:34:42.865Z,4.68
2023-04-21T17:37:09.575Z,3.22
2023-04-21T17:39:36.667Z,4.57
2023-04-21T17:42:03.444Z,9.15
2023-04-21T17:44:31.267Z,3.53
2023-04-21T17:46:58.092Z,6.10
2023-04-21T17:49:26.282Z,6.20
2023-04-21T17:51:53.091Z,6.28
2023-04-21T17:54:20.481Z,4.25
2023-04-21T17:56:47.291Z,3.63
2023-04-21T17:59:14.588Z,7.53
2023-04-21T18:01:41.347Z,7.55
2023-04-21T18:04:08.953Z,8.07
2023-04-21T18:06:36.317Z,6.60
2023-04-21T18:09:05.220Z,4.18
2023-04-21T18:11:32.115Z,5.85
2023-04-21T18:13:59.699Z,6.13
2023-04-21T18:16:26.458Z,4.18
2023-04-21T18:18:53.974Z,6.82
2023-04-21T18:21:21.163Z,3.88
2023-04-21T18:23:49.044Z,4.05
2023-04-21T18:26:15.819Z,5.28
2023-04-21T18:28:42.787Z,8.52
2023-04-21T18:31:09.659Z,6.22
2023-04-21T18:33:37.100Z,6.50
2023-04-21T18:36:03.991Z,5.85
2023-04-21T18:38:31.375Z,4.40
2023-04-21T18:40:58.024Z,4.53
2023-04-21T18:43:25.608Z,3.85
2023-04-21T18:45:52.719Z,4.35
2023-04-21T18:48:19.725Z,6.32
2023-04-21T18:50:46.748Z,4.75
2023-04-21T18:53:15.076Z,7.35
2023-04-21T18:55:41.676Z,5.85
2023-04-21T18:58:08.918Z,6.57
2023-04-21T19:00:38.725Z,6.50
2023-04-21T19:03:09.046Z,7.28
2023-04-21T19:05:37.541Z,6.13
2023-04-21T19:08:04.572Z,5.20
2023-04-21T19:10:34.369Z,6.30
2023-04-21T19:13:01.875Z,6.38
2023-04-21T19:15:28.623Z,6.30
2023-04-21T19:17:55.864Z,6.18
2023-04-21T19:20:22.526Z,7.80
2023-04-21T19:22:49.296Z,5.88
2023-04-21T19:25:17.327Z,6.65
2023-04-21T19:27:44.398Z,5.22
2023-04-21T19:30:11.231Z,6.63
2023-04-21T19:32:38.184Z,3.10
2023-04-21T19:35:05.274Z,6.15
2023-04-21T19:37:34.410Z,8.23
2023-04-21T19:40:03.189Z,8.80
2023-04-21T19:42:30.819Z,5.78
2023-04-21T19:44:58.349Z,5.70
2023-04-21T19:47:24.948Z,7.78
2023-04-21T19:49:52.254Z,13.90
2023-04-21T19:52:19.277Z,6.97
2023-04-21T19:54:45.878Z,4.15
2023-04-21T19:57:12.916Z,2.55
2023-04-21T19:59:39.871Z,2.85
2023-04-21T20:02:07.377Z,3.55
2023-04-21T20:04:34.890Z,3.08
2023-04-21T20:07:01.961Z,5.07
2023-04-21T20:09:29.620Z,2.92
2023-04-21T20:11:56.515Z,4.43
2023-04-21T20:14:23.496Z,5.80
2023-04-21T20:16:50.217Z,5.25
2023-04-21T20:19:17.739Z,6.82
2023-04-21T20:21:44.656Z,4.05
2023-04-21T20:24:12.193Z,4.65
2023-04-21T20:26:38.824Z,4.40
2023-04-21T20:29:05.836Z,10.98
2023-04-21T20:31:33.106Z,3.55
2023-04-21T20:34:00.502Z,5.65
2023-04-21T20:36:27.492Z,3.63
2023-04-21T20:38:57.280Z,6.18
2023-04-21T20:41:24.039Z,4.50
2023-04-21T20:43:51.334Z,6.10
2023-04-21T20:46:18.428Z,6.55
2023-04-21T20:48:45.997Z,5.63
2023-04-21T20:51:13.455Z,5.80
2023-04-21T20:53:40.706Z,7.05
2023-04-21T20:56:07.707Z,6.95
2023-04-21T20:58:35.982Z,6.85
2023-04-21T21:01:02.734Z,6.00
2023-04-21T21:03:31.051Z,5.40
2023-04-21T21:05:57.849Z,8.35
2023-04-21T21:08:24.545Z,5.50
2023-04-21T21:10:51.240Z,6.65
2023-04-21T21:13:18.511Z,8.00
2023-04-21T21:15:45.914Z,6.55
2023-04-21T21:18:13.614Z,8.95
2023-04-21T21:20:40.298Z,7.25
2023-04-21T21:23:07.777Z,8.15
2023-04-21T21:25:34.629Z,8.77
2023-04-21T21:28:01.869Z,8.15
2023-04-21T21:30:28.575Z,9.68
2023-04-21T21:32:56.201Z,10.43
2023-04-21T21:35:22.974Z,11.15
2023-04-21T21:37:50.467Z,10.88
2023-04-21T21:40:17.130Z,14.70
2023-04-21T21:42:44.491Z,9.77
2023-04-21T21:45:11.522Z,10.57
2023-04-21T21:47:42.951Z,13.43
2023-04-21T21:50:12.433Z,11.10
2023-04-21T21:52:39.757Z,13.60
2023-04-21T21:55:06.952Z,13.23
2023-04-21T21:57:34.382Z,14.65
2023-04-21T22:00:01.812Z,14.93
2023-04-21T22:02:32.296Z,13.80
2023-04-21T22:04:59.441Z,10.55
2023-04-21T22:07:26.871Z,10.05
2023-04-21T22:09:53.614Z,14.38
2023-04-21T22:12:21.011Z,14.68
2023-04-21T22:14:47.724Z,15.57
2023-04-21T22:17:16.086Z,14.27
2023-04-21T22:19:42.820Z,14.52
2023-04-21T22:22:10.800Z,13.85
2023-04-21T22:24:37.938Z,15.82
2023-04-21T22:27:05.288Z,15.55
2023-04-21T22:29:31.948Z,16.95
2023-04-21T22:31:59.200Z,15.77
2023-04-21T22:34:25.896Z,15.00
2023-04-21T22:36:53.634Z,16.67
2023-04-21T22:39:20.822Z,19.02
2023-04-21T22:41:48.022Z,18.48
2023-04-21T22:44:14.661Z,20.48
2023-04-21T22:46:43.080Z,22.50
2023-04-21T22:49:09.825Z,19.40
2023-04-21T22:51:37.106Z,21.73
2023-04-21T22:54:03.929Z,21.88
2023-04-21T22:56:31.717Z,24.35
2023-04-21T22:58:58.539Z,21.17
2023-04-21T23:01:25.952Z,25.60
2023-04-21T23:03:52.703Z,23.33
2023-04-21T23:06:20.105Z,22.65
2023-04-21T23:08:46.754Z,27.30
2023-04-21T23:11:14.319Z,21.73
2023-04-21T23:13:41.168Z,25.15
2023-04-21T23:16:08.549Z,21.92
2023-04-21T23:18:35.801Z,22.45
2023-04-21T23:21:03.215Z,20.23
2023-04-21T23:23:29.908Z,20.58
2023-04-21T23:25:57.141Z,22.45
2023-04-21T23:28:24.218Z,23.85
2023-04-21T23:30:51.717Z,21.73
2023-04-21T23:33:18.500Z,23.48
2023-04-21T23:35:45.945Z,22.98
2023-04-21T23:38:12.714Z,19.95
2023-04-21T23:40:40.051Z,25.83
2023-04-21T23:43:07.333Z,27.20
2023-04-21T23:45:34.724Z,27.55
2023-04-21T23:48:01.482Z,29.80
2023-04-21T23:50:28.991Z,26.77
2023-04-21T23:52:55.881Z,27.38
2023-04-21T23:55:23.223Z,28.65
2023-04-21T23:57:49.858Z,31.42
